Tome, NM (87060)

5:25 AM MDT on July 26, 2016 (GMT -0600)
Midvalley Airpark (E98) | | Change Station

Elev 4845 ft 34.76 °N, 106.75 °W | Updated 7 minutes ago

Scattered Clouds
Scattered Clouds
71.0 °F
Feels Like 75 °F
N
2.0
Wind Variable Wind from ENE
Gusts 4.0 mph

Today
High -- | Low -- °F
--% Chance of Precip.
Yesterday
High -- | Low -- °F
Precip. -- in
Pressure 30.25 in
Visibility 10.0 miles
Clouds Scattered Clouds 12000 ft
Heat Index 75 °F
Dew Point 59 °F
Humidity 66%
Rainfall 0.00 in
Snow Depth Not available.
6:12 AM 8:13 PM
Waning Gibbous, 55% visible
METAR KE80 261115Z AUTO 15010KT 10SM SCT120 22/13 A3025 RMK AO2 T02170125
Pressure 30.25 in
Visibility 10.0 miles
Clouds Scattered Clouds 12000 ft
Heat Index 75 °F
Dew Point 59 °F
Humidity 66%
Rainfall 0.00 in
Snow Depth Not available.
6:12 AM 8:13 PM
Waning Gibbous, 55% visible
METAR KE80 261115Z AUTO 15010KT 10SM SCT120 22/13 A3025 RMK AO2 T02170125

10-Day Weather Forecast

Almanac

Astronomy

Jul. 26, 2016 Rise Set
Actual Time
Civil Twilight
Nautical Twilight
Astronomical Twilight
Moon
Length of Visible Light
Length of Day
Tomorrow will be .
, % of the Moon is Illuminated

Today's Extremes

State Highs State Lows

Community

WunderPhotos

Upload Photos

1,927,575 photos uploaded!

WunderBlog® & News

Nearby

Air Quality

  Air Quality AQ Index Pollutant
Not available.

Snow Depth

Station Depth Elevation

Earthquake Activity

City Distance Mag. Time & Date
Minimum magnitude displayed is 2.5.

Coastal Water Temperatures

Place Temperature

Stations

Nearby Weather Stations

Station Location Temp. Windchill Dew Point Humidity Wind Precip. Elev Updated Type
                   

Watches & Warnings

There are currently no watches in effect.